createdAt,value
2019-06-20T00:02:07.334Z,11.20
2019-06-20T00:04:36.569Z,10.40
2019-06-20T00:07:05.879Z,10.83
2019-06-20T00:09:35.179Z,10.40
2019-06-20T00:12:04.465Z,10.13
2019-06-20T00:14:33.713Z,10.37
2019-06-20T00:17:02.991Z,10.53
2019-06-20T00:19:32.277Z,11.20
2019-06-20T00:22:01.493Z,10.40
2019-06-20T00:24:30.776Z,10.80
2019-06-20T00:27:00.051Z,10.83
2019-06-20T00:29:29.311Z,10.27
2019-06-20T00:31:58.604Z,10.50
2019-06-20T00:34:27.847Z,10.03
2019-06-20T00:36:57.133Z,10.40
2019-06-20T00:39:26.412Z,9.93
2019-06-20T00:41:55.672Z,10.87
2019-06-20T00:44:25.026Z,10.37
2019-06-20T00:46:54.370Z,10.53
2019-06-20T00:49:23.814Z,9.67
2019-06-20T00:51:53.053Z,10.30
2019-06-20T00:54:22.507Z,10.33
2019-06-20T00:56:51.762Z,10.17
2019-06-20T00:59:21.158Z,9.90
2019-06-20T01:01:50.443Z,10.40
2019-06-20T01:04:19.695Z,10.50
2019-06-20T01:06:49.080Z,9.73
2019-06-20T01:09:18.355Z,10.23
2019-06-20T01:11:47.631Z,9.53
2019-06-20T01:14:16.863Z,10.10
2019-06-20T01:16:46.196Z,10.13
2019-06-20T01:19:15.446Z,10.70
2019-06-20T01:21:44.803Z,10.10
2019-06-20T01:24:14.051Z,10.37
2019-06-20T01:26:43.335Z,9.70
2019-06-20T01:29:12.824Z,10.87
2019-06-20T01:31:42.143Z,11.50
2019-06-20T01:34:11.466Z,11.13
2019-06-20T01:36:40.719Z,9.47
2019-06-20T01:39:09.966Z,11.10
2019-06-20T01:41:39.246Z,10.00
2019-06-20T01:44:08.501Z,10.67
2019-06-20T01:46:37.758Z,9.80
2019-06-20T01:49:07.130Z,9.87
2019-06-20T01:51:36.382Z,10.33
2019-06-20T01:54:05.767Z,9.60
2019-06-20T01:56:35.126Z,11.10
2019-06-20T01:59:04.450Z,11.53
2019-06-20T02:01:33.738Z,10.50
2019-06-20T02:04:03.039Z,10.10
2019-06-20T02:06:32.250Z,10.57
2019-06-20T02:09:01.561Z,10.10
2019-06-20T02:11:30.938Z,10.13
2019-06-20T02:14:07.393Z,10.63
2019-06-20T02:16:31.106Z,10.30
2019-06-20T02:19:00.341Z,11.43
2019-06-20T02:21:29.637Z,9.80
2019-06-20T02:23:58.874Z,10.23
2019-06-20T02:26:28.283Z,10.20
2019-06-20T02:28:57.630Z,9.60
2019-06-20T02:31:26.934Z,9.83
2019-06-20T02:33:56.163Z,9.77
2019-06-20T02:36:25.425Z,9.10
2019-06-20T02:38:54.683Z,10.20
2019-06-20T02:41:23.986Z,9.83
2019-06-20T02:43:53.342Z,9.70
2019-06-20T02:46:22.734Z,9.23
2019-06-20T02:48:52.027Z,10.40
2019-06-20T02:51:24.502Z,10.13
2019-06-20T02:53:54.181Z,9.40
2019-06-20T02:56:23.505Z,9.80
2019-06-20T02:58:52.812Z,10.10
2019-06-20T03:01:22.061Z,10.17
2019-06-20T03:03:51.369Z,9.80
2019-06-20T03:06:20.814Z,9.43
2019-06-20T03:08:50.094Z,8.90
2019-06-20T03:11:19.362Z,9.47
2019-06-20T03:13:48.641Z,9.50
2019-06-20T03:16:17.884Z,9.63
2019-06-20T03:18:47.186Z,9.70
2019-06-20T03:21:16.529Z,9.83
2019-06-20T03:23:45.781Z,9.97
2019-06-20T03:26:15.072Z,9.30
2019-06-20T03:28:44.337Z,9.33
2019-06-20T03:31:13.774Z,10.00
2019-06-20T03:33:43.014Z,8.90
2019-06-20T03:36:12.296Z,9.43
2019-06-20T03:38:41.557Z,9.27
2019-06-20T03:41:10.839Z,9.53
2019-06-20T03:43:40.139Z,10.03
2019-06-20T03:46:09.402Z,9.07
2019-06-20T03:48:38.679Z,9.53
2019-06-20T03:51:08.008Z,9.90
2019-06-20T03:53:37.259Z,10.03
2019-06-20T03:56:06.528Z,9.83
2019-06-20T03:58:36.183Z,9.70
2019-06-20T04:01:05.549Z,9.60
2019-06-20T04:03:34.836Z,9.53
2019-06-20T04:06:04.094Z,9.07
2019-06-20T04:08:33.353Z,9.37
2019-06-20T04:11:02.912Z,9.50
2019-06-20T04:13:32.343Z,8.70
2019-06-20T04:16:01.708Z,9.07
2019-06-20T04:18:31.026Z,9.13
2019-06-20T04:21:00.303Z,9.03
2019-06-20T04:23:29.568Z,9.90
2019-06-20T04:25:58.912Z,9.53
2019-06-20T04:28:28.146Z,10.30
2019-06-20T04:30:57.427Z,9.23
2019-06-20T04:33:26.745Z,9.20
2019-06-20T04:35:56.185Z,9.37
2019-06-20T04:38:25.463Z,9.67
2019-06-20T04:40:54.729Z,9.50
2019-06-20T04:43:24.071Z,9.87
2019-06-20T04:45:59.243Z,9.73
2019-06-20T04:48:28.547Z,8.13
2019-06-20T04:50:57.874Z,10.40
2019-06-20T04:53:27.229Z,8.77
2019-06-20T04:55:56.474Z,8.43
2019-06-20T04:58:25.787Z,8.80
2019-06-20T05:00:55.276Z,8.73
2019-06-20T05:03:24.570Z,9.53
2019-06-20T05:05:53.842Z,9.30
2019-06-20T05:08:23.211Z,8.97
2019-06-20T05:10:52.495Z,8.90
2019-06-20T05:13:21.848Z,9.00
2019-06-20T05:15:52.969Z,9.33
2019-06-20T05:18:22.044Z,9.90
2019-06-20T05:20:51.315Z,9.80
2019-06-20T05:23:20.686Z,9.33
2019-06-20T05:25:50.003Z,9.23
2019-06-20T05:28:19.340Z,9.87
2019-06-20T05:30:48.662Z,7.80
2019-06-20T05:33:18.026Z,9.17
2019-06-20T05:35:47.371Z,9.97
2019-06-20T05:38:16.640Z,9.60
2019-06-20T05:40:45.933Z,9.63
2019-06-20T05:43:15.216Z,9.70
2019-06-20T05:45:48.545Z,10.50
2019-06-20T05:48:15.568Z,8.87
2019-06-20T05:50:44.906Z,8.03
2019-06-20T05:53:14.386Z,10.30
2019-06-20T05:55:43.666Z,9.77
2019-06-20T05:58:12.930Z,6.67
2019-06-20T06:00:42.218Z,7.93
2019-06-20T06:03:13.680Z,8.10
2019-06-20T06:05:42.441Z,9.00
2019-06-20T06:08:11.801Z,7.77
2019-06-20T06:10:41.322Z,8.17
2019-06-20T06:13:10.711Z,9.30
2019-06-20T06:15:40.026Z,8.73
2019-06-20T06:18:09.279Z,10.07
2019-06-20T06:20:40.342Z,7.70
2019-06-20T06:23:09.637Z,8.20
2019-06-20T06:25:39.318Z,7.40
2019-06-20T06:28:12.112Z,7.17
2019-06-20T06:30:39.737Z,6.97
2019-06-20T06:33:09.037Z,6.90
2019-06-20T06:35:38.251Z,6.33
2019-06-20T06:38:07.489Z,6.63
2019-06-20T06:40:36.784Z,7.33
2019-06-20T06:43:06.064Z,6.70
2019-06-20T06:45:35.394Z,7.53
2019-06-20T06:48:04.682Z,7.83
2019-06-20T06:50:33.920Z,8.37
2019-06-20T06:53:03.200Z,8.50
2019-06-20T06:55:32.526Z,8.70
2019-06-20T06:58:01.821Z,8.40
2019-06-20T07:00:31.110Z,7.93
2019-06-20T07:03:00.393Z,7.90
2019-06-20T07:05:29.641Z,7.50
2019-06-20T07:07:58.934Z,8.37
2019-06-20T07:10:28.501Z,8.37
2019-06-20T07:12:57.791Z,7.73
2019-06-20T07:15:27.142Z,7.20
2019-06-20T07:17:56.437Z,7.97
2019-06-20T07:20:25.877Z,7.77
2019-06-20T07:22:55.320Z,7.57
2019-06-20T07:25:24.588Z,6.93
2019-06-20T07:27:53.864Z,7.50
2019-06-20T07:30:23.124Z,6.67
2019-06-20T07:32:52.530Z,7.07
2019-06-20T07:35:21.776Z,6.93
2019-06-20T07:37:51.161Z,7.10
2019-06-20T07:40:20.604Z,7.37
2019-06-20T07:42:49.845Z,7.03
2019-06-20T07:45:27.388Z,6.93
2019-06-20T07:47:56.541Z,6.40
2019-06-20T07:50:25.894Z,6.67
2019-06-20T07:53:01.974Z,6.83
2019-06-20T07:55:26.178Z,6.33
2019-06-20T07:57:55.425Z,6.67
2019-06-20T08:00:25.411Z,6.70
2019-06-20T08:02:54.679Z,6.67
2019-06-20T08:05:23.988Z,6.10
2019-06-20T08:07:53.237Z,7.00
2019-06-20T08:10:24.067Z,7.13
2019-06-20T08:12:53.407Z,6.20
2019-06-20T08:15:23.764Z,5.27
2019-06-20T08:17:52.993Z,5.27
2019-06-20T08:20:23.129Z,5.53
2019-06-20T08:22:52.431Z,5.90
2019-06-20T08:25:21.780Z,6.50
2019-06-20T08:27:51.319Z,6.93
2019-06-20T08:30:26.664Z,6.70
2019-06-20T08:32:57.567Z,6.23
2019-06-20T08:35:28.882Z,5.50
2019-06-20T08:37:59.281Z,5.47
2019-06-20T08:40:30.756Z,6.13
2019-06-20T08:43:00.224Z,5.43
2019-06-20T08:45:31.735Z,6.17
2019-06-20T08:48:02.447Z,5.50
2019-06-20T08:50:32.030Z,6.10
2019-06-20T08:53:01.756Z,6.00
2019-06-20T08:55:31.132Z,5.40
2019-06-20T08:58:01.622Z,5.57
2019-06-20T09:00:32.510Z,5.40
2019-06-20T09:05:32.063Z,5.80
2019-06-20T09:10:37.771Z,5.37
2019-06-20T09:13:08.577Z,5.30
2019-06-20T09:15:38.262Z,5.62
2019-06-20T09:18:08.090Z,5.47
2019-06-20T09:20:37.655Z,5.43
2019-06-20T09:23:06.941Z,5.23
2019-06-20T09:25:36.506Z,5.53
2019-06-20T09:28:06.509Z,5.33
2019-06-20T09:30:37.457Z,5.63
2019-06-20T09:33:07.087Z,5.62
2019-06-20T09:35:36.518Z,5.57
2019-06-20T09:38:05.911Z,5.33
2019-06-20T09:40:35.214Z,4.80
2019-06-20T09:43:04.546Z,5.80
2019-06-20T09:45:33.849Z,5.78
2019-06-20T09:48:03.242Z,5.80
2019-06-20T09:50:32.581Z,5.30
2019-06-20T09:53:01.838Z,5.40
2019-06-20T09:55:31.154Z,5.20
2019-06-20T09:58:00.463Z,5.92
2019-06-20T10:00:30.007Z,5.57
2019-06-20T10:02:59.252Z,5.83
2019-06-20T10:05:28.606Z,5.45
2019-06-20T10:07:57.889Z,5.92
2019-06-20T10:10:29.581Z,5.00
2019-06-20T10:12:58.987Z,5.17
2019-06-20T10:15:30.576Z,5.43
2019-06-20T10:18:00.088Z,4.97
2019-06-20T10:20:29.342Z,5.35
2019-06-20T10:22:58.651Z,5.33
2019-06-20T10:25:28.001Z,5.58
2019-06-20T10:27:57.836Z,5.22
2019-06-20T10:30:28.138Z,5.10
2019-06-20T10:32:57.860Z,5.45
2019-06-20T10:35:27.579Z,5.70
2019-06-20T10:37:57.290Z,5.00
2019-06-20T10:40:27.023Z,3.80
2019-06-20T10:42:56.880Z,3.62
2019-06-20T10:45:26.994Z,3.58
2019-06-20T10:47:56.387Z,3.05
2019-06-20T10:50:26.428Z,3.45
2019-06-20T10:52:55.826Z,3.08
2019-06-20T10:55:25.272Z,3.37
2019-06-20T10:57:54.551Z,3.35
2019-06-20T11:00:32.659Z,3.20
2019-06-20T11:02:56.603Z,2.90
2019-06-20T11:05:25.887Z,3.15
2019-06-20T11:07:55.211Z,3.08
2019-06-20T11:10:25.023Z,3.60
2019-06-20T11:12:56.173Z,3.55
2019-06-20T11:15:25.192Z,3.58
2019-06-20T11:17:56.585Z,3.40
2019-06-20T11:20:26.961Z,3.60
2019-06-20T11:22:56.389Z,3.40
2019-06-20T11:25:25.623Z,3.52
2019-06-20T11:27:54.874Z,3.70
2019-06-20T11:30:25.704Z,3.60
2019-06-20T11:32:54.963Z,3.52
2019-06-20T11:35:24.180Z,3.60
2019-06-20T11:37:53.471Z,4.33
2019-06-20T11:40:24.313Z,3.33
2019-06-20T11:42:53.583Z,4.15
2019-06-20T11:45:22.959Z,3.47
2019-06-20T11:47:52.239Z,2.70
2019-06-20T11:50:22.339Z,3.10
2019-06-20T11:52:51.654Z,3.33
2019-06-20T11:55:21.143Z,2.77
2019-06-20T11:57:50.450Z,3.33
2019-06-20T12:00:20.786Z,3.52
2019-06-20T12:02:50.326Z,3.52
2019-06-20T12:05:19.779Z,3.67
2019-06-20T12:07:50.005Z,2.83
2019-06-20T12:10:19.528Z,3.10
2019-06-20T12:12:49.172Z,2.90
2019-06-20T12:15:19.278Z,3.17
2019-06-20T12:17:49.303Z,3.30
2019-06-20T12:20:19.210Z,2.92
2019-06-20T12:22:50.529Z,3.20
2019-06-20T12:25:19.883Z,2.98
2019-06-20T12:27:49.750Z,2.95
2019-06-20T12:30:19.760Z,3.37
2019-06-20T12:32:49.425Z,3.35
2019-06-20T12:35:20.376Z,3.20
2019-06-20T12:37:50.067Z,4.33
2019-06-20T12:40:19.999Z,3.87
2019-06-20T12:42:49.433Z,3.80
2019-06-20T12:45:18.954Z,3.65
2019-06-20T12:47:48.212Z,4.17
2019-06-20T12:50:17.706Z,3.35
2019-06-20T12:52:47.642Z,3.65
2019-06-20T12:55:17.149Z,3.60
2019-06-20T12:57:46.603Z,3.33
2019-06-20T13:00:16.404Z,3.70
2019-06-20T13:02:45.715Z,3.85
2019-06-20T13:05:15.599Z,3.80
2019-06-20T13:07:46.267Z,3.80
2019-06-20T13:10:16.244Z,3.67
2019-06-20T13:12:46.340Z,3.08
2019-06-20T13:15:16.191Z,3.37
2019-06-20T13:17:46.760Z,3.62
2019-06-20T13:20:16.515Z,3.47
2019-06-20T13:22:46.582Z,3.90
2019-06-20T13:25:15.971Z,4.03
2019-06-20T13:27:45.696Z,3.92
2019-06-20T13:30:15.497Z,3.52
2019-06-20T13:32:45.369Z,3.98
2019-06-20T13:35:15.443Z,3.92
2019-06-20T13:37:45.744Z,3.85
2019-06-20T13:40:16.055Z,4.45
2019-06-20T13:42:46.144Z,4.00
2019-06-20T13:45:21.666Z,4.00
2019-06-20T13:47:50.920Z,4.87
2019-06-20T13:50:21.963Z,4.03
2019-06-20T13:52:51.581Z,5.05
2019-06-20T13:55:20.986Z,5.47
2019-06-20T13:57:50.369Z,4.67
2019-06-20T14:00:20.895Z,4.25
2019-06-20T14:02:51.548Z,4.35
2019-06-20T14:05:21.243Z,4.47
2019-06-20T14:07:55.407Z,4.55
2019-06-20T14:10:21.575Z,4.40
2019-06-20T14:12:50.845Z,3.83
2019-06-20T14:15:20.532Z,3.92
2019-06-20T14:17:51.343Z,9.05
2019-06-20T14:20:21.921Z,4.78
2019-06-20T14:22:52.227Z,4.65
2019-06-20T14:25:21.769Z,4.50
2019-06-20T14:27:51.536Z,4.75
2019-06-20T14:30:21.449Z,4.70
2019-06-20T14:32:51.405Z,4.62
2019-06-20T14:35:21.144Z,4.67
2019-06-20T14:37:51.792Z,4.72
2019-06-20T14:40:21.879Z,4.75
2019-06-20T14:42:52.342Z,4.72
2019-06-20T14:45:22.102Z,4.30
2019-06-20T14:47:52.503Z,4.58
2019-06-20T14:50:23.376Z,4.40
2019-06-20T14:52:53.979Z,4.45
2019-06-20T14:55:23.536Z,3.85
2019-06-20T14:57:54.476Z,4.30
2019-06-20T15:00:24.416Z,5.10
2019-06-20T15:02:57.856Z,5.12
2019-06-20T15:05:24.634Z,4.60
2019-06-20T15:07:55.798Z,5.25
2019-06-20T15:10:24.817Z,4.92
2019-06-20T15:12:55.653Z,5.28
2019-06-20T15:15:25.093Z,5.60
2019-06-20T15:17:56.310Z,5.10
2019-06-20T15:20:25.347Z,5.33
2019-06-20T15:22:54.838Z,4.80
2019-06-20T15:25:24.148Z,5.72
2019-06-20T15:27:55.265Z,5.03
2019-06-20T15:30:24.513Z,4.70
2019-06-20T15:33:05.868Z,4.92
2019-06-20T15:35:24.729Z,5.00
2019-06-20T15:37:55.491Z,4.75
2019-06-20T15:40:25.095Z,4.60
2019-06-20T15:42:55.352Z,4.30
2019-06-20T15:45:25.446Z,3.95
2019-06-20T15:47:54.800Z,3.72
2019-06-20T15:50:24.152Z,3.90
2019-06-20T15:52:53.466Z,3.15
2019-06-20T15:55:22.752Z,4.12
2019-06-20T15:57:54.213Z,3.67
2019-06-20T16:00:23.576Z,3.70
2019-06-20T16:02:53.037Z,3.60
2019-06-20T16:05:22.432Z,4.20
2019-06-20T16:07:51.721Z,3.85
2019-06-20T16:10:21.113Z,3.62
2019-06-20T16:12:50.381Z,3.70
2019-06-20T16:15:23.148Z,4.05
2019-06-20T16:17:52.449Z,4.10
2019-06-20T16:20:22.742Z,4.00
2019-06-20T16:22:52.052Z,4.40
2019-06-20T16:25:21.681Z,4.22
2019-06-20T16:27:51.028Z,3.98
2019-06-20T16:30:21.058Z,4.25
2019-06-20T16:32:50.365Z,3.90
2019-06-20T16:35:19.812Z,3.92
2019-06-20T16:37:49.167Z,4.25
2019-06-20T16:40:24.781Z,4.78
2019-06-20T16:42:54.177Z,3.87
2019-06-20T16:45:23.468Z,3.83
2019-06-20T16:47:52.761Z,3.65
2019-06-20T16:50:23.888Z,3.70
2019-06-20T16:52:53.206Z,3.83
2019-06-20T16:55:22.542Z,4.03
2019-06-20T16:57:51.829Z,4.00
2019-06-20T17:00:21.814Z,4.30
2019-06-20T17:02:51.069Z,3.10
2019-06-20T17:05:20.862Z,3.65
2019-06-20T17:07:50.114Z,3.75
2019-06-20T17:10:19.606Z,3.50
2019-06-20T17:12:48.945Z,3.58
2019-06-20T17:15:18.453Z,3.50
2019-06-20T17:17:47.794Z,3.62
2019-06-20T17:20:17.225Z,4.25
2019-06-20T17:22:46.579Z,3.42
2019-06-20T17:25:17.433Z,3.70
2019-06-20T17:27:46.746Z,3.42
2019-06-20T17:30:18.517Z,3.15
2019-06-20T17:32:48.005Z,3.90
2019-06-20T17:35:17.970Z,3.65
2019-06-20T17:37:47.326Z,4.00
2019-06-20T17:40:17.629Z,3.92
2019-06-20T17:42:46.987Z,3.83
2019-06-20T17:45:16.849Z,4.20
2019-06-20T17:47:46.348Z,3.70
2019-06-20T17:50:16.932Z,3.90
2019-06-20T17:52:46.403Z,4.40
2019-06-20T17:55:15.653Z,4.20
2019-06-20T17:57:44.979Z,4.50
2019-06-20T18:00:15.927Z,3.50
2019-06-20T18:02:45.259Z,3.92
2019-06-20T18:05:15.025Z,4.58
2019-06-20T18:07:44.344Z,4.40
2019-06-20T18:10:14.930Z,4.70
2019-06-20T18:12:44.258Z,4.70
2019-06-20T18:15:13.771Z,5.35
2019-06-20T18:17:43.092Z,4.65
2019-06-20T18:20:12.617Z,5.12
2019-06-20T18:22:41.947Z,5.08
2019-06-20T18:25:13.244Z,5.53
2019-06-20T18:27:42.611Z,5.47
2019-06-20T18:30:12.412Z,9.33
2019-06-20T18:32:41.720Z,8.60
2019-06-20T18:35:11.010Z,8.10
2019-06-20T18:37:40.538Z,7.72
2019-06-20T18:40:10.520Z,7.12
2019-06-20T18:42:39.776Z,7.00
2019-06-20T18:45:09.182Z,6.07
2019-06-20T18:47:38.472Z,7.43
2019-06-20T18:50:08.394Z,7.13
2019-06-20T18:52:51.190Z,7.03
2019-06-20T18:55:09.133Z,7.47
2019-06-20T18:57:38.448Z,7.67
2019-06-20T19:00:08.369Z,7.10
2019-06-20T19:02:37.624Z,6.90
2019-06-20T19:05:07.177Z,8.10
2019-06-20T19:07:37.075Z,7.77
2019-06-20T19:10:06.700Z,7.50
2019-06-20T19:12:35.976Z,6.70
2019-06-20T19:15:06.128Z,7.13
2019-06-20T19:17:35.503Z,6.00
2019-06-20T19:20:05.662Z,6.77
2019-06-20T19:22:34.979Z,6.07
2019-06-20T19:25:04.545Z,6.63
2019-06-20T19:27:45.680Z,7.27
2019-06-20T19:30:05.759Z,6.27
2019-06-20T19:32:35.040Z,6.50
2019-06-20T19:35:05.110Z,6.43
2019-06-20T19:37:34.392Z,6.73
2019-06-20T19:40:03.883Z,6.10
2019-06-20T19:42:33.279Z,6.80
2019-06-20T19:45:02.512Z,6.50
2019-06-20T19:47:31.914Z,6.40
2019-06-20T19:50:01.179Z,6.13
2019-06-20T19:52:30.489Z,6.10
2019-06-20T19:54:59.848Z,6.10
2019-06-20T19:57:29.252Z,6.70
2019-06-20T19:59:58.742Z,7.17
2019-06-20T20:02:28.107Z,6.67
2019-06-20T20:04:57.438Z,6.33
2019-06-20T20:07:26.756Z,7.03
2019-06-20T20:09:56.145Z,6.50
2019-06-20T20:12:25.418Z,6.90
2019-06-20T20:14:54.673Z,6.77
2019-06-20T20:17:24.045Z,6.50
2019-06-20T20:19:53.428Z,7.00
2019-06-20T20:22:22.757Z,7.43
2019-06-20T20:24:52.038Z,6.93
2019-06-20T20:27:21.337Z,7.53
2019-06-20T20:29:50.678Z,7.00
2019-06-20T20:32:19.953Z,7.57
2019-06-20T20:34:49.254Z,7.50
2019-06-20T20:37:18.541Z,7.60
2019-06-20T20:39:47.871Z,8.10
2019-06-20T20:42:17.947Z,7.40
2019-06-20T20:44:47.256Z,7.47
2019-06-20T20:47:16.541Z,7.77
2019-06-20T20:49:45.826Z,7.90
2019-06-20T20:52:15.222Z,7.80
2019-06-20T20:54:44.503Z,8.07
2019-06-20T20:57:13.821Z,7.60
2019-06-20T20:59:43.093Z,8.23
2019-06-20T21:02:14.419Z,8.20
2019-06-20T21:04:44.847Z,7.93
2019-06-20T21:07:23.397Z,8.10
2019-06-20T21:09:52.706Z,8.03
2019-06-20T21:12:22.000Z,8.40
2019-06-20T21:14:51.277Z,8.87
2019-06-20T21:17:20.596Z,9.00
2019-06-20T21:19:49.890Z,8.07
2019-06-20T21:22:19.331Z,8.37
2019-06-20T21:24:48.581Z,8.97
2019-06-20T21:27:17.912Z,8.00
2019-06-20T21:29:47.332Z,8.50
2019-06-20T21:32:16.616Z,9.00
2019-06-20T21:34:45.964Z,9.70
2019-06-20T21:37:15.253Z,9.50
2019-06-20T21:39:44.531Z,9.80
2019-06-20T21:42:13.863Z,9.10
2019-06-20T21:44:43.121Z,9.47
2019-06-20T21:47:12.416Z,9.70
2019-06-20T21:49:41.702Z,10.70
2019-06-20T21:52:11.027Z,9.90
2019-06-20T21:54:40.389Z,9.80
2019-06-20T21:57:09.691Z,10.40
2019-06-20T21:59:38.997Z,10.23
2019-06-20T22:02:08.574Z,11.03
2019-06-20T22:04:50.930Z,11.33
2019-06-20T22:07:08.798Z,11.30
2019-06-20T22:09:38.146Z,10.67
2019-06-20T22:12:07.478Z,10.40
2019-06-20T22:14:36.740Z,9.77
2019-06-20T22:17:06.056Z,10.03
2019-06-20T22:19:35.352Z,11.47
2019-06-20T22:22:05.024Z,10.87
2019-06-20T22:24:34.314Z,9.33
2019-06-20T22:27:03.574Z,10.10
2019-06-20T22:29:32.950Z,10.77
2019-06-20T22:32:02.295Z,11.60
2019-06-20T22:34:31.886Z,10.60
2019-06-20T22:37:01.203Z,10.20
2019-06-20T22:39:30.487Z,10.80
2019-06-20T22:41:59.838Z,11.50
2019-06-20T22:44:29.226Z,10.83
2019-06-20T22:46:58.511Z,10.33
2019-06-20T22:49:27.887Z,9.80
2019-06-20T22:51:57.199Z,9.87
2019-06-20T22:54:26.457Z,10.60
2019-06-20T22:56:55.757Z,9.67
2019-06-20T22:59:25.029Z,10.60
2019-06-20T23:01:54.361Z,10.70
2019-06-20T23:04:23.657Z,11.43
2019-06-20T23:06:56.681Z,9.30
2019-06-20T23:09:27.173Z,10.27
2019-06-20T23:11:54.829Z,9.20
2019-06-20T23:14:24.261Z,9.53
2019-06-20T23:16:53.565Z,9.27
2019-06-20T23:19:22.882Z,9.63
2019-06-20T23:21:52.317Z,9.43
2019-06-20T23:24:21.664Z,8.90
2019-06-20T23:26:51.873Z,9.70
2019-06-20T23:29:23.941Z,10.10
2019-06-20T23:31:54.452Z,9.97
2019-06-20T23:34:23.919Z,10.50
2019-06-20T23:36:53.261Z,10.33
2019-06-20T23:39:22.584Z,10.07
2019-06-20T23:41:51.938Z,10.13
2019-06-20T23:44:21.245Z,10.10
2019-06-20T23:46:50.602Z,10.67
2019-06-20T23:49:19.919Z,10.50
2019-06-20T23:51:55.013Z,10.50
2019-06-20T23:54:24.321Z,10.03
2019-06-20T23:56:53.613Z,10.33
2019-06-20T23:59:22.900Z,10.47
